createdAt,value
2023-08-15T00:02:25.703Z,61.34
2023-08-15T00:05:29.387Z,61.21
2023-08-15T00:08:38.252Z,61.41
2023-08-15T00:11:41.938Z,61.71
2023-08-15T00:14:45.437Z,62.36
2023-08-15T00:17:48.340Z,62.11
2023-08-15T00:20:51.932Z,63.51
2023-08-15T00:23:55.532Z,62.96
2023-08-15T00:26:59.008Z,62.58
2023-08-15T00:30:01.910Z,62.50
2023-08-15T00:33:07.419Z,61.90
2023-08-15T00:36:10.427Z,62.12
2023-08-15T00:39:13.376Z,62.62
2023-08-15T00:42:16.392Z,62.36
2023-08-15T00:45:19.407Z,62.87
2023-08-15T00:48:24.149Z,62.45
2023-08-15T00:51:28.407Z,62.71
2023-08-15T00:54:33.160Z,63.21
2023-08-15T00:57:36.133Z,63.48
2023-08-15T01:00:40.321Z,64.13
2023-08-15T01:03:43.363Z,64.68
2023-08-15T01:06:46.983Z,64.98
2023-08-15T01:09:50.189Z,64.39
2023-08-15T01:13:19.557Z,64.68
2023-08-15T01:16:29.739Z,65.06
2023-08-15T01:19:44.552Z,65.77
2023-08-15T01:22:52.090Z,65.20
2023-08-15T01:25:56.686Z,65.51
2023-08-15T01:29:00.530Z,65.58
2023-08-15T01:32:30.566Z,65.84
2023-08-15T01:35:45.103Z,65.26
2023-08-15T01:38:55.516Z,65.28
2023-08-15T01:42:02.569Z,65.67
2023-08-15T01:45:07.781Z,65.66
2023-08-15T01:48:10.835Z,66.33
2023-08-15T01:51:14.853Z,66.31
2023-08-15T01:54:18.660Z,65.78
2023-08-15T01:57:22.453Z,65.52
2023-08-15T02:00:25.786Z,65.40
2023-08-15T02:03:28.691Z,65.44
2023-08-15T02:06:31.631Z,65.20
2023-08-15T02:09:35.124Z,65.54
2023-08-15T02:12:39.145Z,65.29
2023-08-15T02:15:42.155Z,65.14
2023-08-15T02:18:45.547Z,65.52
2023-08-15T02:21:48.458Z,66.08
2023-08-15T02:24:52.244Z,65.89
2023-08-15T02:27:55.574Z,66.32
2023-08-15T02:30:59.337Z,66.21
2023-08-15T02:34:02.340Z,66.78
2023-08-15T02:37:05.708Z,67.39
2023-08-15T02:40:11.172Z,67.59
2023-08-15T02:43:14.597Z,67.17
2023-08-15T02:46:18.529Z,66.98
2023-08-15T02:49:21.846Z,67.35
2023-08-15T02:52:25.617Z,67.85
2023-08-15T02:55:28.522Z,68.19
2023-08-15T02:58:32.111Z,68.71
2023-08-15T03:01:35.923Z,69.00
2023-08-15T03:04:39.606Z,68.81
2023-08-15T03:07:42.937Z,69.03
2023-08-15T03:10:46.662Z,69.30
2023-08-15T03:13:50.220Z,69.56
2023-08-15T03:16:54.263Z,69.20
2023-08-15T03:19:58.536Z,69.05
2023-08-15T03:23:02.182Z,69.14
2023-08-15T03:26:06.670Z,69.45
2023-08-15T03:29:12.445Z,69.36
2023-08-15T03:32:16.670Z,70.02
2023-08-15T03:35:22.738Z,71.03
2023-08-15T03:38:26.165Z,71.30
2023-08-15T03:41:29.286Z,71.28
2023-08-15T03:44:32.192Z,71.32
2023-08-15T03:47:35.035Z,70.62
2023-08-15T03:50:39.729Z,70.79
2023-08-15T03:53:44.623Z,70.62
2023-08-15T03:56:47.597Z,69.98
2023-08-15T03:59:50.475Z,70.23
2023-08-15T04:02:55.756Z,70.48
2023-08-15T04:05:59.482Z,70.01
2023-08-15T04:09:03.030Z,69.73
2023-08-15T04:12:06.663Z,69.73
2023-08-15T04:15:10.887Z,69.37
2023-08-15T04:18:13.914Z,69.59
2023-08-15T04:21:17.785Z,69.40
2023-08-15T04:24:21.059Z,69.69
2023-08-15T04:27:24.882Z,70.33
2023-08-15T04:30:28.057Z,70.29
2023-08-15T04:33:31.012Z,69.96
2023-08-15T04:36:35.049Z,70.02
2023-08-15T04:39:38.779Z,69.49
2023-08-15T04:42:43.904Z,69.61
2023-08-15T04:45:46.934Z,69.44
2023-08-15T04:48:49.913Z,69.51
2023-08-15T04:51:52.886Z,69.44
2023-08-15T04:54:56.345Z,68.99
2023-08-15T04:57:59.266Z,69.49
2023-08-15T05:01:03.349Z,69.22
2023-08-15T05:04:07.424Z,69.13
2023-08-15T05:07:10.331Z,68.32
2023-08-15T05:10:13.815Z,67.95
2023-08-15T05:13:20.452Z,67.86
2023-08-15T05:16:23.627Z,67.52
2023-08-15T05:19:26.924Z,67.75
2023-08-15T05:22:29.878Z,67.30
2023-08-15T05:25:33.209Z,67.61
2023-08-15T05:28:37.362Z,67.01
2023-08-15T05:31:41.542Z,66.69
2023-08-15T05:34:44.488Z,66.36
2023-08-15T05:37:47.825Z,66.13
2023-08-15T05:40:51.398Z,66.18
2023-08-15T05:43:54.232Z,65.99
2023-08-15T05:46:57.133Z,65.75
2023-08-15T05:50:00.017Z,65.62
2023-08-15T05:53:03.978Z,65.93
2023-08-15T05:56:07.933Z,65.41
2023-08-15T05:59:11.438Z,64.68
2023-08-15T06:02:15.276Z,64.73
2023-08-15T06:05:18.921Z,64.03
2023-08-15T06:08:22.524Z,64.27
2023-08-15T06:11:25.595Z,63.38
2023-08-15T06:14:28.481Z,63.82
2023-08-15T06:17:31.392Z,62.75
2023-08-15T06:20:34.402Z,62.18
2023-08-15T06:23:39.042Z,62.03
2023-08-15T06:26:42.221Z,61.88
2023-08-15T06:29:45.927Z,62.30
2023-08-15T06:32:49.496Z,61.56
2023-08-15T06:35:52.405Z,61.23
2023-08-15T06:38:56.548Z,61.19
2023-08-15T06:42:00.427Z,60.93
2023-08-15T06:45:12.908Z,60.52
2023-08-15T06:48:16.362Z,60.48
2023-08-15T06:51:19.279Z,60.06
2023-08-15T06:54:22.156Z,59.89
2023-08-15T06:57:25.132Z,59.26
2023-08-15T07:00:28.104Z,59.72
2023-08-15T07:03:33.526Z,59.01
2023-08-15T07:06:36.524Z,58.65
2023-08-15T07:09:39.536Z,58.61
2023-08-15T07:12:43.595Z,58.02
2023-08-15T07:15:47.956Z,58.36
2023-08-15T07:18:52.120Z,57.69
2023-08-15T07:21:55.596Z,56.63
2023-08-15T07:24:58.540Z,56.66
2023-08-15T07:28:01.359Z,56.54
2023-08-15T07:31:05.285Z,57.04
2023-08-15T07:34:09.257Z,56.17
2023-08-15T07:37:12.989Z,56.67
2023-08-15T07:40:21.020Z,56.70
2023-08-15T07:43:25.156Z,56.36
2023-08-15T07:46:30.210Z,56.19
2023-08-15T07:49:39.302Z,56.38
2023-08-15T07:52:43.020Z,55.87
2023-08-15T07:55:45.974Z,55.94
2023-08-15T07:58:48.731Z,55.36
2023-08-15T08:01:51.745Z,56.14
2023-08-15T08:04:55.764Z,55.33
2023-08-15T08:07:59.574Z,54.82
2023-08-15T08:11:02.540Z,54.96
2023-08-15T08:14:05.769Z,55.01
2023-08-15T08:17:09.879Z,54.75
2023-08-15T08:20:14.144Z,54.36
2023-08-15T08:23:17.704Z,54.08
2023-08-15T08:26:20.723Z,53.72
2023-08-15T08:29:23.720Z,53.61
2023-08-15T08:32:26.670Z,53.59
2023-08-15T08:35:30.157Z,52.75
2023-08-15T08:38:33.049Z,52.63
2023-08-15T08:41:40.778Z,52.77
2023-08-15T08:44:44.408Z,52.02
2023-08-15T08:47:48.122Z,51.92
2023-08-15T08:50:51.498Z,51.26
2023-08-15T08:53:55.779Z,50.91
2023-08-15T08:57:02.608Z,50.27
2023-08-15T09:00:13.726Z,50.68
2023-08-15T09:03:16.962Z,50.10
2023-08-15T09:06:21.645Z,49.73
2023-08-15T09:09:25.706Z,49.71
2023-08-15T09:12:38.731Z,48.74
2023-08-15T09:15:48.907Z,47.47
2023-08-15T09:18:52.693Z,48.22
2023-08-15T09:21:56.278Z,47.04
2023-08-15T09:24:59.249Z,47.20
2023-08-15T09:28:02.821Z,47.17
2023-08-15T09:31:06.014Z,45.50
2023-08-15T09:34:12.075Z,45.74
2023-08-15T09:37:15.735Z,44.32
2023-08-15T09:40:27.894Z,44.26
2023-08-15T09:43:31.926Z,44.03
2023-08-15T09:46:35.598Z,45.30
2023-08-15T09:49:39.417Z,44.17
2023-08-15T09:52:44.593Z,43.19
2023-08-15T09:55:48.383Z,43.82
2023-08-15T09:58:51.404Z,43.36
2023-08-15T10:01:58.683Z,40.01
2023-08-15T10:05:04.617Z,39.13
2023-08-15T10:08:11.034Z,38.35
2023-08-15T10:11:14.846Z,38.29
2023-08-15T10:14:22.768Z,37.01
2023-08-15T10:17:30.803Z,36.87
2023-08-15T10:20:37.843Z,37.22
2023-08-15T10:23:41.080Z,36.28
2023-08-15T10:26:47.307Z,35.57
2023-08-15T10:30:00.504Z,33.34
2023-08-15T10:33:12.481Z,33.67
2023-08-15T10:36:16.281Z,34.68
2023-08-15T10:39:22.251Z,34.80
2023-08-15T10:42:26.281Z,34.96
2023-08-15T10:45:32.713Z,34.66
2023-08-15T10:48:55.506Z,33.35
2023-08-15T10:52:04.062Z,33.67
2023-08-15T10:55:16.152Z,34.02
2023-08-15T10:58:22.950Z,33.32
2023-08-15T11:01:27.966Z,33.34
2023-08-15T11:04:32.445Z,32.50
2023-08-15T11:07:35.295Z,32.26
2023-08-15T11:10:44.109Z,32.19
2023-08-15T11:13:49.467Z,31.40
2023-08-15T11:16:52.636Z,31.21
2023-08-15T11:19:56.474Z,30.84
2023-08-15T11:23:00.927Z,31.49
2023-08-15T11:26:07.204Z,30.66
2023-08-15T11:29:14.527Z,30.71
2023-08-15T11:32:18.465Z,29.66
2023-08-15T11:35:23.090Z,30.04
2023-08-15T11:38:30.057Z,29.40
2023-08-15T11:41:36.503Z,29.59
2023-08-15T11:44:40.756Z,30.05
2023-08-15T11:47:57.520Z,29.45
2023-08-15T11:51:01.482Z,29.65
2023-08-15T11:54:05.010Z,28.58
2023-08-15T11:57:08.949Z,29.45
2023-08-15T12:00:12.475Z,29.04
2023-08-15T12:03:16.952Z,29.99
2023-08-15T12:06:20.214Z,29.48
2023-08-15T12:09:30.811Z,28.63
2023-08-15T12:12:46.778Z,29.06
2023-08-15T12:15:51.159Z,28.12
2023-08-15T12:18:55.001Z,27.51
2023-08-15T12:21:58.233Z,26.82
2023-08-15T12:25:01.249Z,25.82
2023-08-15T12:28:05.797Z,25.25
2023-08-15T12:31:09.644Z,25.45
2023-08-15T12:34:12.647Z,25.62
2023-08-15T12:37:15.662Z,25.03
2023-08-15T12:40:30.545Z,23.95
2023-08-15T12:43:34.981Z,23.88
2023-08-15T12:46:37.868Z,24.49
2023-08-15T12:49:41.707Z,26.01
2023-08-15T12:52:45.025Z,27.38
2023-08-15T12:55:47.878Z,26.24
2023-08-15T12:58:51.638Z,23.29
2023-08-15T13:01:56.149Z,22.20
2023-08-15T13:04:59.186Z,21.01
2023-08-15T13:08:05.320Z,22.54
2023-08-15T13:11:08.309Z,24.30
2023-08-15T13:14:12.101Z,25.08
2023-08-15T13:17:14.884Z,25.93
2023-08-15T13:20:18.064Z,26.88
2023-08-15T13:23:22.895Z,27.02
2023-08-15T13:26:26.798Z,28.24
2023-08-15T13:29:29.674Z,28.00
2023-08-15T13:32:33.744Z,26.76
2023-08-15T13:35:37.613Z,25.01
2023-08-15T13:38:40.812Z,25.42
2023-08-15T13:41:45.439Z,23.63
2023-08-15T13:44:48.982Z,22.84
2023-08-15T13:47:52.949Z,22.31
2023-08-15T13:50:56.648Z,21.62
2023-08-15T13:54:03.198Z,23.23
2023-08-15T13:57:07.065Z,22.94
2023-08-15T14:00:11.293Z,20.71
2023-08-15T14:03:15.038Z,21.39
2023-08-15T14:06:18.149Z,21.86
2023-08-15T14:09:24.705Z,22.27
2023-08-15T14:12:28.473Z,23.48
2023-08-15T14:15:31.418Z,25.03
2023-08-15T14:18:35.101Z,25.86
2023-08-15T14:21:38.599Z,26.28
2023-08-15T14:24:48.077Z,25.56
2023-08-15T14:27:51.100Z,23.89
2023-08-15T14:30:54.817Z,22.45
2023-08-15T14:33:58.591Z,23.04
2023-08-15T14:37:01.577Z,23.64
2023-08-15T14:40:05.895Z,22.20
2023-08-15T14:43:10.582Z,22.47
2023-08-15T14:46:14.250Z,21.89
2023-08-15T14:49:17.673Z,22.90
2023-08-15T14:52:23.113Z,25.19
2023-08-15T14:55:26.096Z,25.50
2023-08-15T14:58:29.219Z,26.87
2023-08-15T15:01:33.196Z,26.13
2023-08-15T15:04:36.706Z,27.13
2023-08-15T15:07:39.802Z,26.79
2023-08-15T15:10:43.868Z,27.58
2023-08-15T15:13:47.138Z,27.75
2023-08-15T15:16:51.554Z,27.08
2023-08-15T15:19:54.611Z,27.90
2023-08-15T15:22:58.162Z,29.47
2023-08-15T15:26:01.033Z,29.09
2023-08-15T15:29:04.015Z,28.74
2023-08-15T15:32:07.740Z,29.05
2023-08-15T15:35:12.274Z,29.96
2023-08-15T15:38:15.151Z,28.65
2023-08-15T15:41:18.161Z,28.87
2023-08-15T15:44:21.229Z,30.26
2023-08-15T15:47:24.772Z,29.46
2023-08-15T15:50:28.234Z,30.34
2023-08-15T15:53:31.227Z,29.81
2023-08-15T15:56:34.118Z,30.46
2023-08-15T15:59:37.045Z,29.86
2023-08-15T16:02:40.039Z,30.44
2023-08-15T16:05:43.140Z,30.64
2023-08-15T16:08:46.805Z,31.15
2023-08-15T16:11:50.345Z,31.67
2023-08-15T16:14:53.773Z,32.34
2023-08-15T16:17:57.070Z,32.41
2023-08-15T16:20:59.906Z,32.46
2023-08-15T16:24:02.820Z,32.86
2023-08-15T16:27:05.911Z,32.64
2023-08-15T16:30:17.843Z,32.78
2023-08-15T16:33:22.417Z,32.36
2023-08-15T16:36:26.323Z,32.81
2023-08-15T16:39:29.817Z,33.33
2023-08-15T16:42:32.686Z,33.29
2023-08-15T16:45:35.516Z,33.24
2023-08-15T16:48:39.300Z,34.10
2023-08-15T16:51:42.178Z,33.90
2023-08-15T16:54:45.053Z,34.38
2023-08-15T16:57:48.779Z,34.95
2023-08-15T17:00:51.698Z,35.20
2023-08-15T17:03:54.800Z,35.84
2023-08-15T17:06:57.848Z,35.86
2023-08-15T17:10:00.962Z,36.36
2023-08-15T17:13:05.795Z,36.70
2023-08-15T17:16:12.323Z,36.46
2023-08-15T17:19:15.333Z,36.94
2023-08-15T17:22:18.286Z,37.36
2023-08-15T17:25:21.203Z,39.88
2023-08-15T17:28:24.934Z,38.96
2023-08-15T17:31:28.504Z,39.84
2023-08-15T17:34:31.461Z,39.58
2023-08-15T17:37:34.485Z,39.47
2023-08-15T17:40:38.435Z,39.83
2023-08-15T17:43:41.498Z,38.98
2023-08-15T17:46:44.405Z,37.82
2023-08-15T17:49:47.379Z,37.60
2023-08-15T17:52:50.374Z,37.25
2023-08-15T17:55:53.215Z,36.80
2023-08-15T17:58:56.218Z,36.98
2023-08-15T18:02:01.394Z,37.23
2023-08-15T18:05:06.786Z,37.06
2023-08-15T18:08:11.011Z,38.25
2023-08-15T18:11:14.830Z,37.71
2023-08-15T18:14:18.509Z,37.57
2023-08-15T18:17:24.800Z,37.42
2023-08-15T18:20:28.577Z,37.44
2023-08-15T18:23:32.003Z,37.28
2023-08-15T18:26:36.098Z,37.75
2023-08-15T18:29:38.976Z,37.44
2023-08-15T18:32:43.060Z,37.77
2023-08-15T18:35:46.510Z,38.29
2023-08-15T18:38:49.504Z,38.24
2023-08-15T18:41:53.172Z,38.30
2023-08-15T18:44:57.044Z,38.25
2023-08-15T18:48:00.554Z,38.40
2023-08-15T18:51:04.349Z,38.24
2023-08-15T18:54:09.071Z,38.93
2023-08-15T18:57:13.052Z,39.29
2023-08-15T19:00:18.191Z,39.23
2023-08-15T19:03:23.803Z,39.88
2023-08-15T19:06:26.876Z,39.87
2023-08-15T19:09:31.309Z,40.58
2023-08-15T19:12:37.267Z,40.83
2023-08-15T19:15:41.173Z,41.63
2023-08-15T19:18:44.095Z,42.06
2023-08-15T19:21:47.492Z,40.85
2023-08-15T19:24:50.774Z,41.16
2023-08-15T19:27:54.506Z,42.42
2023-08-15T19:30:58.560Z,42.76
2023-08-15T19:34:02.327Z,42.89
2023-08-15T19:37:05.268Z,43.56
2023-08-15T19:40:12.272Z,43.70
2023-08-15T19:43:15.084Z,43.80
2023-08-15T19:46:18.202Z,44.34
2023-08-15T19:49:22.155Z,45.05
2023-08-15T19:52:25.255Z,45.56
2023-08-15T19:55:31.928Z,46.29
2023-08-15T19:58:36.068Z,46.53
2023-08-15T20:01:41.942Z,46.33
2023-08-15T20:04:45.629Z,46.48
2023-08-15T20:07:49.029Z,46.65
2023-08-15T20:10:52.822Z,47.21
2023-08-15T20:13:55.748Z,47.66
2023-08-15T20:16:58.694Z,47.90
2023-08-15T20:20:03.462Z,48.12
2023-08-15T20:23:07.661Z,48.05
2023-08-15T20:26:11.123Z,48.29
2023-08-15T20:29:14.027Z,46.82
2023-08-15T20:32:17.618Z,46.32
2023-08-15T20:35:21.192Z,46.18
2023-08-15T20:38:24.002Z,45.84
2023-08-15T20:41:26.969Z,46.21
2023-08-15T20:44:30.688Z,44.92
2023-08-15T20:47:33.622Z,44.87
2023-08-15T20:50:37.449Z,44.98
2023-08-15T20:53:40.409Z,45.78
2023-08-15T20:56:44.399Z,47.63
2023-08-15T20:59:47.371Z,49.02
2023-08-15T21:02:51.224Z,49.64
2023-08-15T21:05:55.176Z,49.23
2023-08-15T21:08:58.728Z,47.02
2023-08-15T21:12:01.767Z,45.84
2023-08-15T21:15:05.046Z,45.63
2023-08-15T21:18:08.877Z,46.10
2023-08-15T21:21:11.806Z,45.78
2023-08-15T21:24:14.868Z,46.16
2023-08-15T21:27:18.812Z,45.77
2023-08-15T21:30:22.881Z,45.96
2023-08-15T21:33:26.648Z,45.98
2023-08-15T21:36:29.699Z,45.71
2023-08-15T21:39:33.355Z,45.83
2023-08-15T21:42:38.280Z,45.98
2023-08-15T21:45:45.861Z,46.52
2023-08-15T21:48:48.869Z,47.74
2023-08-15T21:51:51.735Z,48.39
2023-08-15T21:54:55.353Z,48.87
2023-08-15T21:57:58.554Z,49.36
2023-08-15T22:01:03.492Z,49.58
2023-08-15T22:04:07.295Z,49.02
2023-08-15T22:07:10.936Z,49.26
2023-08-15T22:10:13.901Z,49.94
2023-08-15T22:13:17.850Z,49.94
2023-08-15T22:16:21.320Z,49.62
2023-08-15T22:19:24.261Z,49.57
2023-08-15T22:22:27.882Z,50.06
2023-08-15T22:25:30.729Z,51.50
2023-08-15T22:28:33.652Z,52.51
2023-08-15T22:31:36.745Z,52.12
2023-08-15T22:34:39.767Z,52.38
2023-08-15T22:37:45.854Z,56.37
2023-08-15T22:40:52.112Z,57.24
2023-08-15T22:43:54.963Z,58.35
2023-08-15T22:46:57.919Z,58.42
2023-08-15T22:50:01.814Z,58.85
2023-08-15T22:53:04.935Z,59.56
2023-08-15T22:56:08.216Z,59.79
2023-08-15T22:59:11.852Z,59.66
2023-08-15T23:02:15.289Z,59.98
2023-08-15T23:05:18.588Z,59.17
2023-08-15T23:08:22.744Z,59.40
2023-08-15T23:11:28.344Z,59.63
2023-08-15T23:14:31.898Z,59.84
2023-08-15T23:17:35.386Z,59.88
2023-08-15T23:20:38.504Z,59.57
2023-08-15T23:23:41.466Z,59.74
2023-08-15T23:26:44.961Z,59.96
2023-08-15T23:29:49.088Z,60.36
2023-08-15T23:32:52.089Z,60.43
2023-08-15T23:35:54.983Z,60.31
2023-08-15T23:38:58.562Z,60.16
2023-08-15T23:42:02.617Z,60.49
2023-08-15T23:45:09.014Z,60.82
2023-08-15T23:48:13.455Z,61.03
2023-08-15T23:51:17.066Z,61.06
2023-08-15T23:54:20.148Z,61.07
2023-08-15T23:57:24.639Z,61.53
